sensor_id;sensor_type;location;lat;lon;timestamp;P1;durP1;ratioP1;P2;durP2;ratioP2
16025;SDS011;8117;52.488;13.460;2023-05-01T00:00:55;1.90;;;1.63;;
16025;SDS011;8117;52.488;13.460;2023-05-01T00:03:22;2.13;;;1.70;;
16025;SDS011;8117;52.488;13.460;2023-05-01T00:05:49;2.70;;;1.37;;
16025;SDS011;8117;52.488;13.460;2023-05-01T00:08:15;2.77;;;1.70;;
16025;SDS011;8117;52.488;13.460;2023-05-01T00:10:42;2.83;;;1.80;;
16025;SDS011;8117;52.488;13.460;2023-05-01T00:13:09;2.00;;;1.53;;
16025;SDS011;8117;52.488;13.460;2023-05-01T00:15:35;2.07;;;1.17;;
16025;SDS011;8117;52.488;13.460;2023-05-01T00:18:03;2.10;;;1.50;;
16025;SDS011;8117;52.488;13.460;2023-05-01T00:20:30;3.30;;;1.83;;
16025;SDS011;8117;52.488;13.460;2023-05-01T00:23:00;1.30;;;1.20;;
16025;SDS011;8117;52.488;13.460;2023-05-01T00:25:27;1.33;;;1.10;;
16025;SDS011;8117;52.488;13.460;2023-05-01T00:27:53;2.43;;;1.73;;
16025;SDS011;8117;52.488;13.460;2023-05-01T00:30:25;2.77;;;1.30;;
16025;SDS011;8117;52.488;13.460;2023-05-01T00:32:52;2.93;;;1.30;;
16025;SDS011;8117;52.488;13.460;2023-05-01T00:35:20;2.17;;;1.30;;
16025;SDS011;8117;52.488;13.460;2023-05-01T00:37:47;2.70;;;1.57;;
16025;SDS011;8117;52.488;13.460;2023-05-01T00:40:14;2.13;;;1.17;;
16025;SDS011;8117;52.488;13.460;2023-05-01T00:42:41;2.37;;;1.30;;
16025;SDS011;8117;52.488;13.460;2023-05-01T00:45:08;4.87;;;1.77;;
16025;SDS011;8117;52.488;13.460;2023-05-01T00:47:36;1.13;;;1.07;;
16025;SDS011;8117;52.488;13.460;2023-05-01T00:50:03;1.47;;;1.20;;
16025;SDS011;8117;52.488;13.460;2023-05-01T00:52:32;2.10;;;1.40;;
16025;SDS011;8117;52.488;13.460;2023-05-01T00:55:00;2.43;;;1.40;;
16025;SDS011;8117;52.488;13.460;2023-05-01T00:57:27;1.87;;;1.70;;
16025;SDS011;8117;52.488;13.460;2023-05-01T00:59:53;1.57;;;1.07;;
16025;SDS011;8117;52.488;13.460;2023-05-01T01:02:41;2.63;;;1.27;;
16025;SDS011;8117;52.488;13.460;2023-05-01T01:05:08;2.20;;;1.67;;
16025;SDS011;8117;52.488;13.460;2023-05-01T01:07:39;1.50;;;1.03;;
16025;SDS011;8117;52.488;13.460;2023-05-01T01:10:09;1.67;;;1.23;;
16025;SDS011;8117;52.488;13.460;2023-05-01T01:12:45;1.77;;;1.60;;
16025;SDS011;8117;52.488;13.460;2023-05-01T01:15:20;3.57;;;1.80;;
16025;SDS011;8117;52.488;13.460;2023-05-01T01:17:56;4.27;;;1.40;;
16025;SDS011;8117;52.488;13.460;2023-05-01T01:20:30;1.83;;;1.10;;
16025;SDS011;8117;52.488;13.460;2023-05-01T01:23:07;1.67;;;1.10;;
16025;SDS011;8117;52.488;13.460;2023-05-01T01:28:46;4.47;;;2.10;;
16025;SDS011;8117;52.488;13.460;2023-05-01T01:31:35;1.77;;;1.13;;
16025;SDS011;8117;52.488;13.460;2023-05-01T01:34:12;2.00;;;1.53;;
16025;SDS011;8117;52.488;13.460;2023-05-01T01:36:42;4.27;;;1.30;;
16025;SDS011;8117;52.488;13.460;2023-05-01T01:39:14;3.07;;;2.00;;
16025;SDS011;8117;52.488;13.460;2023-05-01T01:41:48;5.00;;;2.57;;
16025;SDS011;8117;52.488;13.460;2023-05-01T01:44:19;3.43;;;1.67;;
16025;SDS011;8117;52.488;13.460;2023-05-01T01:46:50;2.43;;;1.50;;
16025;SDS011;8117;52.488;13.460;2023-05-01T01:49:20;1.67;;;1.47;;
16025;SDS011;8117;52.488;13.460;2023-05-01T01:51:49;7.40;;;2.33;;
16025;SDS011;8117;52.488;13.460;2023-05-01T01:54:17;2.43;;;1.70;;
16025;SDS011;8117;52.488;13.460;2023-05-01T01:56:45;2.47;;;1.50;;
16025;SDS011;8117;52.488;13.460;2023-05-01T01:59:12;5.30;;;2.00;;
16025;SDS011;8117;52.488;13.460;2023-05-01T02:01:40;3.43;;;1.90;;
16025;SDS011;8117;52.488;13.460;2023-05-01T02:04:08;3.80;;;2.00;;
16025;SDS011;8117;52.488;13.460;2023-05-01T02:06:37;3.13;;;2.37;;
16025;SDS011;8117;52.488;13.460;2023-05-01T02:09:05;3.30;;;2.33;;
16025;SDS011;8117;52.488;13.460;2023-05-01T02:11:32;10.20;;;1.90;;
16025;SDS011;8117;52.488;13.460;2023-05-01T02:14:03;2.73;;;1.90;;
16025;SDS011;8117;52.488;13.460;2023-05-01T02:16:32;3.10;;;1.77;;
16025;SDS011;8117;52.488;13.460;2023-05-01T02:18:59;6.97;;;2.70;;
16025;SDS011;8117;52.488;13.460;2023-05-01T02:21:27;3.70;;;2.77;;
16025;SDS011;8117;52.488;13.460;2023-05-01T02:23:59;5.07;;;1.80;;
16025;SDS011;8117;52.488;13.460;2023-05-01T02:26:26;4.60;;;2.20;;
16025;SDS011;8117;52.488;13.460;2023-05-01T02:28:54;3.53;;;2.47;;
16025;SDS011;8117;52.488;13.460;2023-05-01T02:31:21;3.97;;;2.60;;
16025;SDS011;8117;52.488;13.460;2023-05-01T02:33:48;4.23;;;2.33;;
16025;SDS011;8117;52.488;13.460;2023-05-01T02:36:14;4.80;;;2.87;;
16025;SDS011;8117;52.488;13.460;2023-05-01T02:38:42;2.50;;;2.00;;
16025;SDS011;8117;52.488;13.460;2023-05-01T02:41:12;5.13;;;2.03;;
16025;SDS011;8117;52.488;13.460;2023-05-01T02:43:40;3.70;;;2.50;;
16025;SDS011;8117;52.488;13.460;2023-05-01T02:46:07;10.17;;;2.77;;
16025;SDS011;8117;52.488;13.460;2023-05-01T02:48:37;6.97;;;2.67;;
16025;SDS011;8117;52.488;13.460;2023-05-01T02:51:05;2.80;;;2.60;;
16025;SDS011;8117;52.488;13.460;2023-05-01T02:53:32;4.27;;;2.27;;
16025;SDS011;8117;52.488;13.460;2023-05-01T02:55:59;5.07;;;2.07;;
16025;SDS011;8117;52.488;13.460;2023-05-01T02:58:29;4.53;;;2.50;;
16025;SDS011;8117;52.488;13.460;2023-05-01T03:00:58;4.97;;;2.97;;
16025;SDS011;8117;52.488;13.460;2023-05-01T03:03:27;4.63;;;2.20;;
16025;SDS011;8117;52.488;13.460;2023-05-01T03:05:54;4.37;;;2.20;;
16025;SDS011;8117;52.488;13.460;2023-05-01T03:08:21;4.63;;;2.27;;
16025;SDS011;8117;52.488;13.460;2023-05-01T03:10:48;2.87;;;1.97;;
16025;SDS011;8117;52.488;13.460;2023-05-01T03:13:14;2.23;;;1.90;;
16025;SDS011;8117;52.488;13.460;2023-05-01T03:15:43;2.40;;;2.10;;
16025;SDS011;8117;52.488;13.460;2023-05-01T03:18:09;3.57;;;1.97;;
16025;SDS011;8117;52.488;13.460;2023-05-01T03:20:36;2.77;;;1.80;;
16025;SDS011;8117;52.488;13.460;2023-05-01T03:23:03;2.63;;;1.90;;
16025;SDS011;8117;52.488;13.460;2023-05-01T03:25:30;4.73;;;2.00;;
16025;SDS011;8117;52.488;13.460;2023-05-01T03:27:57;3.10;;;1.50;;
16025;SDS011;8117;52.488;13.460;2023-05-01T03:30:23;2.90;;;1.83;;
16025;SDS011;8117;52.488;13.460;2023-05-01T03:32:52;3.07;;;1.63;;
16025;SDS011;8117;52.488;13.460;2023-05-01T03:35:19;4.00;;;1.80;;
16025;SDS011;8117;52.488;13.460;2023-05-01T03:37:45;3.23;;;1.90;;
16025;SDS011;8117;52.488;13.460;2023-05-01T03:40:12;3.50;;;2.47;;
16025;SDS011;8117;52.488;13.460;2023-05-01T03:42:39;3.57;;;1.70;;
16025;SDS011;8117;52.488;13.460;2023-05-01T03:45:07;2.50;;;1.93;;
16025;SDS011;8117;52.488;13.460;2023-05-01T03:47:34;5.93;;;2.53;;
16025;SDS011;8117;52.488;13.460;2023-05-01T03:50:03;5.27;;;1.60;;
16025;SDS011;8117;52.488;13.460;2023-05-01T03:52:30;2.87;;;1.80;;
16025;SDS011;8117;52.488;13.460;2023-05-01T03:54:57;3.37;;;2.27;;
16025;SDS011;8117;52.488;13.460;2023-05-01T03:57:23;4.97;;;2.17;;
16025;SDS011;8117;52.488;13.460;2023-05-01T03:59:51;2.13;;;1.70;;
16025;SDS011;8117;52.488;13.460;2023-05-01T04:02:18;4.20;;;1.23;;
16025;SDS011;8117;52.488;13.460;2023-05-01T04:04:45;2.30;;;1.73;;
16025;SDS011;8117;52.488;13.460;2023-05-01T04:07:13;1.43;;;1.20;;
16025;SDS011;8117;52.488;13.460;2023-05-01T04:09:40;2.97;;;2.23;;
16025;SDS011;8117;52.488;13.460;2023-05-01T04:12:07;2.83;;;1.70;;
16025;SDS011;8117;52.488;13.460;2023-05-01T04:14:34;1.40;;;1.30;;
16025;SDS011;8117;52.488;13.460;2023-05-01T04:17:01;3.33;;;1.60;;
16025;SDS011;8117;52.488;13.460;2023-05-01T04:19:30;6.50;;;2.20;;
16025;SDS011;8117;52.488;13.460;2023-05-01T04:21:58;1.90;;;1.73;;
16025;SDS011;8117;52.488;13.460;2023-05-01T04:24:27;2.87;;;1.87;;
16025;SDS011;8117;52.488;13.460;2023-05-01T04:26:53;1.77;;;1.67;;
16025;SDS011;8117;52.488;13.460;2023-05-01T04:29:20;2.87;;;1.60;;
16025;SDS011;8117;52.488;13.460;2023-05-01T04:31:47;1.33;;;1.23;;
16025;SDS011;8117;52.488;13.460;2023-05-01T04:34:14;2.50;;;1.73;;
16025;SDS011;8117;52.488;13.460;2023-05-01T04:36:41;4.27;;;2.03;;
16025;SDS011;8117;52.488;13.460;2023-05-01T04:39:09;5.17;;;2.00;;
16025;SDS011;8117;52.488;13.460;2023-05-01T04:41:37;3.03;;;1.30;;
16025;SDS011;8117;52.488;13.460;2023-05-01T04:44:04;6.40;;;1.90;;
16025;SDS011;8117;52.488;13.460;2023-05-01T04:46:31;1.37;;;1.27;;
16025;SDS011;8117;52.488;13.460;2023-05-01T04:48:58;2.50;;;1.30;;
16025;SDS011;8117;52.488;13.460;2023-05-01T04:51:24;3.63;;;1.57;;
16025;SDS011;8117;52.488;13.460;2023-05-01T04:53:53;1.70;;;1.30;;
16025;SDS011;8117;52.488;13.460;2023-05-01T04:56:23;1.33;;;1.17;;
16025;SDS011;8117;52.488;13.460;2023-05-01T04:58:51;2.30;;;1.50;;
16025;SDS011;8117;52.488;13.460;2023-05-01T05:01:21;4.37;;;1.70;;
16025;SDS011;8117;52.488;13.460;2023-05-01T05:03:47;3.20;;;1.83;;
16025;SDS011;8117;52.488;13.460;2023-05-01T05:06:14;1.43;;;1.20;;
16025;SDS011;8117;52.488;13.460;2023-05-01T05:08:41;3.67;;;1.40;;
16025;SDS011;8117;52.488;13.460;2023-05-01T05:11:07;2.40;;;1.80;;
16025;SDS011;8117;52.488;13.460;2023-05-01T05:13:35;1.63;;;1.17;;
16025;SDS011;8117;52.488;13.460;2023-05-01T05:16:09;3.37;;;2.00;;
16025;SDS011;8117;52.488;13.460;2023-05-01T05:18:36;3.77;;;1.97;;
16025;SDS011;8117;52.488;13.460;2023-05-01T05:21:03;2.50;;;1.73;;
16025;SDS011;8117;52.488;13.460;2023-05-01T05:23:30;2.67;;;1.50;;
16025;SDS011;8117;52.488;13.460;2023-05-01T05:25:56;1.40;;;1.30;;
16025;SDS011;8117;52.488;13.460;2023-05-01T05:28:25;4.40;;;1.80;;
16025;SDS011;8117;52.488;13.460;2023-05-01T05:30:52;1.47;;;0.93;;
16025;SDS011;8117;52.488;13.460;2023-05-01T05:33:27;5.47;;;1.70;;
16025;SDS011;8117;52.488;13.460;2023-05-01T05:35:54;3.53;;;1.70;;
16025;SDS011;8117;52.488;13.460;2023-05-01T05:38:21;6.83;;;1.87;;
16025;SDS011;8117;52.488;13.460;2023-05-01T05:40:55;1.20;;;1.10;;
16025;SDS011;8117;52.488;13.460;2023-05-01T05:43:23;2.00;;;1.60;;
16025;SDS011;8117;52.488;13.460;2023-05-01T05:45:50;3.27;;;1.53;;
16025;SDS011;8117;52.488;13.460;2023-05-01T05:48:24;1.93;;;1.10;;
16025;SDS011;8117;52.488;13.460;2023-05-01T05:50:51;1.63;;;1.30;;
16025;SDS011;8117;52.488;13.460;2023-05-01T05:53:20;2.30;;;1.63;;
16025;SDS011;8117;52.488;13.460;2023-05-01T05:56:58;5.90;;;2.23;;
16025;SDS011;8117;52.488;13.460;2023-05-01T05:58:53;2.87;;;1.07;;
16025;SDS011;8117;52.488;13.460;2023-05-01T06:01:32;2.80;;;1.27;;
16025;SDS011;8117;52.488;13.460;2023-05-01T06:04:15;4.60;;;1.60;;
16025;SDS011;8117;52.488;13.460;2023-05-01T06:06:44;2.37;;;1.37;;
16025;SDS011;8117;52.488;13.460;2023-05-01T06:09:10;2.33;;;1.50;;
16025;SDS011;8117;52.488;13.460;2023-05-01T06:11:37;1.93;;;1.17;;
16025;SDS011;8117;52.488;13.460;2023-05-01T06:14:04;3.80;;;1.70;;
16025;SDS011;8117;52.488;13.460;2023-05-01T06:16:31;2.60;;;1.77;;
16025;SDS011;8117;52.488;13.460;2023-05-01T06:18:58;1.63;;;1.20;;
16025;SDS011;8117;52.488;13.460;2023-05-01T06:21:26;4.87;;;1.20;;
16025;SDS011;8117;52.488;13.460;2023-05-01T06:23:57;1.10;;;1.07;;
16025;SDS011;8117;52.488;13.460;2023-05-01T06:26:24;1.43;;;1.10;;
16025;SDS011;8117;52.488;13.460;2023-05-01T06:28:54;1.67;;;1.43;;
16025;SDS011;8117;52.488;13.460;2023-05-01T06:31:20;1.43;;;0.70;;
16025;SDS011;8117;52.488;13.460;2023-05-01T06:33:47;1.33;;;1.10;;
16025;SDS011;8117;52.488;13.460;2023-05-01T06:36:14;3.53;;;1.70;;
16025;SDS011;8117;52.488;13.460;2023-05-01T06:38:45;1.47;;;0.90;;
16025;SDS011;8117;52.488;13.460;2023-05-01T06:41:13;1.80;;;1.43;;
16025;SDS011;8117;52.488;13.460;2023-05-01T06:43:40;3.23;;;1.20;;
16025;SDS011;8117;52.488;13.460;2023-05-01T06:46:07;2.93;;;0.83;;
16025;SDS011;8117;52.488;13.460;2023-05-01T06:48:43;3.67;;;1.07;;
16025;SDS011;8117;52.488;13.460;2023-05-01T06:51:09;1.50;;;0.97;;
16025;SDS011;8117;52.488;13.460;2023-05-01T06:53:53;1.50;;;1.40;;
16025;SDS011;8117;52.488;13.460;2023-05-01T06:56:19;1.73;;;0.77;;
16025;SDS011;8117;52.488;13.460;2023-05-01T06:58:46;0.70;;;0.70;;
16025;SDS011;8117;52.488;13.460;2023-05-01T07:01:16;2.20;;;1.17;;
16025;SDS011;8117;52.488;13.460;2023-05-01T07:03:45;1.30;;;1.20;;
16025;SDS011;8117;52.488;13.460;2023-05-01T07:06:14;0.97;;;0.70;;
16025;SDS011;8117;52.488;13.460;2023-05-01T07:08:45;1.60;;;0.77;;
16025;SDS011;8117;52.488;13.460;2023-05-01T07:11:27;2.27;;;1.27;;
16025;SDS011;8117;52.488;13.460;2023-05-01T07:13:54;1.10;;;1.03;;
16025;SDS011;8117;52.488;13.460;2023-05-01T07:16:23;1.37;;;1.20;;
16025;SDS011;8117;52.488;13.460;2023-05-01T07:18:53;4.27;;;1.17;;
16025;SDS011;8117;52.488;13.460;2023-05-01T07:21:29;1.17;;;1.03;;
16025;SDS011;8117;52.488;13.460;2023-05-01T07:24:09;1.50;;;1.13;;
16025;SDS011;8117;52.488;13.460;2023-05-01T07:26:39;1.20;;;1.10;;
16025;SDS011;8117;52.488;13.460;2023-05-01T07:29:08;2.07;;;0.67;;
16025;SDS011;8117;52.488;13.460;2023-05-01T07:31:36;1.03;;;0.63;;
16025;SDS011;8117;52.488;13.460;2023-05-01T07:36:51;3.50;;;0.90;;
16025;SDS011;8117;52.488;13.460;2023-05-01T07:42:52;4.00;;;0.90;;
16025;SDS011;8117;52.488;13.460;2023-05-01T07:48:47;1.03;;;0.93;;
16025;SDS011;8117;52.488;13.460;2023-05-01T07:51:13;1.27;;;1.17;;
16025;SDS011;8117;52.488;13.460;2023-05-01T07:53:41;3.83;;;1.10;;
16025;SDS011;8117;52.488;13.460;2023-05-01T07:56:10;2.87;;;1.17;;
16025;SDS011;8117;52.488;13.460;2023-05-01T07:58:38;0.97;;;0.97;;
16025;SDS011;8117;52.488;13.460;2023-05-01T08:01:09;1.53;;;1.03;;
16025;SDS011;8117;52.488;13.460;2023-05-01T08:03:35;1.17;;;0.50;;
16025;SDS011;8117;52.488;13.460;2023-05-01T08:06:02;1.53;;;0.97;;
16025;SDS011;8117;52.488;13.460;2023-05-01T08:08:30;1.47;;;1.37;;
16025;SDS011;8117;52.488;13.460;2023-05-01T08:10:56;1.30;;;1.00;;
16025;SDS011;8117;52.488;13.460;2023-05-01T08:13:23;1.63;;;0.70;;
16025;SDS011;8117;52.488;13.460;2023-05-01T08:15:51;1.10;;;0.70;;
16025;SDS011;8117;52.488;13.460;2023-05-01T08:18:18;1.40;;;1.13;;
16025;SDS011;8117;52.488;13.460;2023-05-01T08:20:47;3.90;;;1.00;;
16025;SDS011;8117;52.488;13.460;2023-05-01T08:23:15;0.77;;;0.67;;
16025;SDS011;8117;52.488;13.460;2023-05-01T08:25:42;2.50;;;1.00;;
16025;SDS011;8117;52.488;13.460;2023-05-01T08:28:11;1.13;;;0.60;;
16025;SDS011;8117;52.488;13.460;2023-05-01T08:30:38;0.80;;;0.80;;
16025;SDS011;8117;52.488;13.460;2023-05-01T08:33:06;0.90;;;0.77;;
16025;SDS011;8117;52.488;13.460;2023-05-01T08:35:35;2.33;;;1.20;;
16025;SDS011;8117;52.488;13.460;2023-05-01T08:38:06;1.27;;;0.60;;
16025;SDS011;8117;52.488;13.460;2023-05-01T08:40:35;0.70;;;0.70;;
16025;SDS011;8117;52.488;13.460;2023-05-01T08:43:02;0.73;;;0.73;;
16025;SDS011;8117;52.488;13.460;2023-05-01T08:45:30;4.10;;;0.90;;
16025;SDS011;8117;52.488;13.460;2023-05-01T08:48:00;25.73;;;9.47;;
16025;SDS011;8117;52.488;13.460;2023-05-01T08:50:31;2.47;;;2.27;;
16025;SDS011;8117;52.488;13.460;2023-05-01T08:53:01;2.80;;;1.80;;
16025;SDS011;8117;52.488;13.460;2023-05-01T08:55:29;1.23;;;1.13;;
16025;SDS011;8117;52.488;13.460;2023-05-01T08:58:03;6.73;;;3.03;;
16025;SDS011;8117;52.488;13.460;2023-05-01T09:00:33;8.13;;;2.70;;
16025;SDS011;8117;52.488;13.460;2023-05-01T09:03:00;4.70;;;2.67;;
16025;SDS011;8117;52.488;13.460;2023-05-01T09:05:32;1.57;;;1.20;;
16025;SDS011;8117;52.488;13.460;2023-05-01T09:07:59;1.23;;;0.90;;
16025;SDS011;8117;52.488;13.460;2023-05-01T09:10:27;1.10;;;1.10;;
16025;SDS011;8117;52.488;13.460;2023-05-01T09:12:59;2.53;;;0.83;;
16025;SDS011;8117;52.488;13.460;2023-05-01T09:15:27;1.90;;;1.13;;
16025;SDS011;8117;52.488;13.460;2023-05-01T09:18:00;3.60;;;0.97;;
16025;SDS011;8117;52.488;13.460;2023-05-01T09:20:28;1.43;;;1.07;;
16025;SDS011;8117;52.488;13.460;2023-05-01T09:23:01;2.57;;;0.80;;
16025;SDS011;8117;52.488;13.460;2023-05-01T09:25:37;2.43;;;0.70;;
16025;SDS011;8117;52.488;13.460;2023-05-01T09:28:43;1.17;;;0.67;;
16025;SDS011;8117;52.488;13.460;2023-05-01T09:31:47;0.87;;;0.67;;
16025;SDS011;8117;52.488;13.460;2023-05-01T09:34:34;1.17;;;0.80;;
16025;SDS011;8117;52.488;13.460;2023-05-01T09:37:26;2.00;;;1.00;;
16025;SDS011;8117;52.488;13.460;2023-05-01T09:40:13;1.20;;;0.90;;
16025;SDS011;8117;52.488;13.460;2023-05-01T09:42:51;0.77;;;0.77;;
16025;SDS011;8117;52.488;13.460;2023-05-01T09:45:59;4.13;;;0.90;;
16025;SDS011;8117;52.488;13.460;2023-05-01T09:48:29;2.03;;;0.97;;
16025;SDS011;8117;52.488;13.460;2023-05-01T09:52:05;1.50;;;0.77;;
16025;SDS011;8117;52.488;13.460;2023-05-01T10:08:46;1.23;;;0.63;;
16025;SDS011;8117;52.488;13.460;2023-05-01T10:11:19;1.03;;;0.93;;
16025;SDS011;8117;52.488;13.460;2023-05-01T10:16:42;1.33;;;0.70;;
16025;SDS011;8117;52.488;13.460;2023-05-01T10:19:20;4.17;;;1.20;;
16025;SDS011;8117;52.488;13.460;2023-05-01T10:22:05;0.87;;;0.87;;
16025;SDS011;8117;52.488;13.460;2023-05-01T10:24:35;1.43;;;1.17;;
16025;SDS011;8117;52.488;13.460;2023-05-01T10:27:04;1.03;;;0.87;;
16025;SDS011;8117;52.488;13.460;2023-05-01T10:29:37;0.93;;;0.90;;
16025;SDS011;8117;52.488;13.460;2023-05-01T10:32:23;1.87;;;1.50;;
16025;SDS011;8117;52.488;13.460;2023-05-01T10:34:53;1.17;;;1.07;;
16025;SDS011;8117;52.488;13.460;2023-05-01T10:37:25;2.43;;;1.00;;
16025;SDS011;8117;52.488;13.460;2023-05-01T10:40:53;1.50;;;1.10;;
16025;SDS011;8117;52.488;13.460;2023-05-01T10:43:23;2.57;;;1.00;;
16025;SDS011;8117;52.488;13.460;2023-05-01T10:49:05;3.07;;;1.50;;
16025;SDS011;8117;52.488;13.460;2023-05-01T10:51:57;1.53;;;1.10;;
16025;SDS011;8117;52.488;13.460;2023-05-01T10:55:10;3.17;;;1.30;;
16025;SDS011;8117;52.488;13.460;2023-05-01T14:50:56;1.80;;;1.65;;
16025;SDS011;8117;52.488;13.460;2023-05-01T14:53:32;2.13;;;1.63;;
16025;SDS011;8117;52.488;13.460;2023-05-01T14:56:12;2.88;;;1.88;;
16025;SDS011;8117;52.488;13.460;2023-05-01T15:06:19;3.30;;;1.58;;
16025;SDS011;8117;52.488;13.460;2023-05-01T15:09:02;3.38;;;1.88;;
16025;SDS011;8117;52.488;13.460;2023-05-01T15:11:57;4.63;;;1.55;;
16025;SDS011;8117;52.488;13.460;2023-05-01T15:14:44;1.38;;;1.27;;
16025;SDS011;8117;52.488;13.460;2023-05-01T15:18:35;2.08;;;1.38;;
16025;SDS011;8117;52.488;13.460;2023-05-01T15:20:35;3.00;;;1.48;;
16025;SDS011;8117;52.488;13.460;2023-05-01T15:29:45;2.47;;;1.30;;
16025;SDS011;8117;52.488;13.460;2023-05-01T15:32:20;6.20;;;1.48;;
16025;SDS011;8117;52.488;13.460;2023-05-01T15:34:47;1.52;;;1.42;;
16025;SDS011;8117;52.488;13.460;2023-05-01T15:37:20;2.55;;;1.67;;
16025;SDS011;8117;52.488;13.460;2023-05-01T15:42:48;1.20;;;1.10;;
16025;SDS011;8117;52.488;13.460;2023-05-01T15:45:19;4.55;;;1.90;;
16025;SDS011;8117;52.488;13.460;2023-05-01T15:47:52;1.98;;;1.50;;
16025;SDS011;8117;52.488;13.460;2023-05-01T15:50:21;2.50;;;2.03;;
16025;SDS011;8117;52.488;13.460;2023-05-01T15:52:58;2.08;;;1.20;;
16025;SDS011;8117;52.488;13.460;2023-05-01T15:56:01;2.83;;;1.55;;
16025;SDS011;8117;52.488;13.460;2023-05-01T15:59:08;3.72;;;1.58;;
16025;SDS011;8117;52.488;13.460;2023-05-01T16:01:44;3.00;;;1.42;;
16025;SDS011;8117;52.488;13.460;2023-05-01T16:04:11;4.53;;;2.25;;
16025;SDS011;8117;52.488;13.460;2023-05-01T16:06:39;1.70;;;1.50;;
16025;SDS011;8117;52.488;13.460;2023-05-01T16:09:06;1.75;;;1.55;;
16025;SDS011;8117;52.488;13.460;2023-05-01T16:11:33;2.25;;;1.55;;
16025;SDS011;8117;52.488;13.460;2023-05-01T16:14:00;2.88;;;1.75;;
16025;SDS011;8117;52.488;13.460;2023-05-01T16:16:30;2.42;;;1.77;;
16025;SDS011;8117;52.488;13.460;2023-05-01T16:19:02;2.38;;;1.45;;
16025;SDS011;8117;52.488;13.460;2023-05-01T16:21:28;1.70;;;1.50;;
16025;SDS011;8117;52.488;13.460;2023-05-01T16:23:55;1.92;;;1.55;;
16025;SDS011;8117;52.488;13.460;2023-05-01T16:26:35;3.47;;;1.75;;
16025;SDS011;8117;52.488;13.460;2023-05-01T16:29:03;2.42;;;1.60;;
16025;SDS011;8117;52.488;13.460;2023-05-01T16:31:35;2.90;;;1.73;;
16025;SDS011;8117;52.488;13.460;2023-05-01T16:34:06;2.30;;;1.88;;
16025;SDS011;8117;52.488;13.460;2023-05-01T16:36:33;1.42;;;1.23;;
16025;SDS011;8117;52.488;13.460;2023-05-01T16:39:06;1.38;;;1.27;;
16025;SDS011;8117;52.488;13.460;2023-05-01T16:41:41;2.05;;;1.38;;
16025;SDS011;8117;52.488;13.460;2023-05-01T16:44:09;2.80;;;1.73;;
16025;SDS011;8117;52.488;13.460;2023-05-01T16:46:38;2.35;;;1.58;;
16025;SDS011;8117;52.488;13.460;2023-05-01T16:49:10;2.30;;;1.80;;
16025;SDS011;8117;52.488;13.460;2023-05-01T16:51:38;2.22;;;1.67;;
16025;SDS011;8117;52.488;13.460;2023-05-01T16:54:05;2.17;;;1.13;;
16025;SDS011;8117;52.488;13.460;2023-05-01T16:56:34;1.88;;;1.45;;
16025;SDS011;8117;52.488;13.460;2023-05-01T16:59:01;3.20;;;2.00;;
16025;SDS011;8117;52.488;13.460;2023-05-01T17:01:28;2.72;;;1.50;;
16025;SDS011;8117;52.488;13.460;2023-05-01T17:03:54;2.63;;;1.83;;
16025;SDS011;8117;52.488;13.460;2023-05-01T17:06:22;3.17;;;2.00;;
16025;SDS011;8117;52.488;13.460;2023-05-01T17:08:49;2.47;;;1.70;;
16025;SDS011;8117;52.488;13.460;2023-05-01T17:11:16;1.77;;;1.30;;
16025;SDS011;8117;52.488;13.460;2023-05-01T17:13:45;2.47;;;2.10;;
16025;SDS011;8117;52.488;13.460;2023-05-01T17:16:11;2.17;;;1.67;;
16025;SDS011;8117;52.488;13.460;2023-05-01T17:18:38;2.77;;;1.87;;
16025;SDS011;8117;52.488;13.460;2023-05-01T17:21:05;4.00;;;2.27;;
16025;SDS011;8117;52.488;13.460;2023-05-01T17:23:34;2.47;;;1.97;;
16025;SDS011;8117;52.488;13.460;2023-05-01T17:26:07;2.77;;;2.30;;
16025;SDS011;8117;52.488;13.460;2023-05-01T17:28:34;2.72;;;1.55;;
16025;SDS011;8117;52.488;13.460;2023-05-01T17:31:00;2.00;;;1.77;;
16025;SDS011;8117;52.488;13.460;2023-05-01T17:33:28;1.83;;;1.70;;
16025;SDS011;8117;52.488;13.460;2023-05-01T17:36:00;2.60;;;2.20;;
16025;SDS011;8117;52.488;13.460;2023-05-01T17:38:27;6.43;;;2.00;;
16025;SDS011;8117;52.488;13.460;2023-05-01T17:40:57;2.70;;;2.10;;
16025;SDS011;8117;52.488;13.460;2023-05-01T17:43:24;2.30;;;2.00;;
16025;SDS011;8117;52.488;13.460;2023-05-01T17:45:56;3.33;;;2.20;;
16025;SDS011;8117;52.488;13.460;2023-05-01T17:48:32;3.37;;;2.30;;
16025;SDS011;8117;52.488;13.460;2023-05-01T17:51:01;4.07;;;2.03;;
16025;SDS011;8117;52.488;13.460;2023-05-01T17:53:35;4.20;;;2.20;;
16025;SDS011;8117;52.488;13.460;2023-05-01T17:56:03;4.03;;;2.50;;
16025;SDS011;8117;52.488;13.460;2023-05-01T17:58:33;4.77;;;2.50;;
16025;SDS011;8117;52.488;13.460;2023-05-01T18:01:00;4.33;;;2.03;;
16025;SDS011;8117;52.488;13.460;2023-05-01T18:03:30;4.73;;;2.50;;
16025;SDS011;8117;52.488;13.460;2023-05-01T18:05:59;5.17;;;3.53;;
16025;SDS011;8117;52.488;13.460;2023-05-01T18:08:26;5.93;;;2.27;;
16025;SDS011;8117;52.488;13.460;2023-05-01T18:10:53;3.35;;;2.78;;
16025;SDS011;8117;52.488;13.460;2023-05-01T18:13:22;3.57;;;2.20;;
16025;SDS011;8117;52.488;13.460;2023-05-01T18:15:54;3.03;;;1.97;;
16025;SDS011;8117;52.488;13.460;2023-05-01T18:18:40;5.87;;;2.33;;
16025;SDS011;8117;52.488;13.460;2023-05-01T22:09:35;9.37;;;4.03;;
16025;SDS011;8117;52.488;13.460;2023-05-01T22:12:30;4.87;;;3.83;;
16025;SDS011;8117;52.488;13.460;2023-05-01T22:15:06;6.83;;;4.67;;
16025;SDS011;8117;52.488;13.460;2023-05-01T22:17:51;8.83;;;4.30;;
16025;SDS011;8117;52.488;13.460;2023-05-01T22:20:21;6.70;;;3.50;;
16025;SDS011;8117;52.488;13.460;2023-05-01T22:22:48;7.23;;;3.27;;
16025;SDS011;8117;52.488;13.460;2023-05-01T22:25:26;6.07;;;3.70;;
16025;SDS011;8117;52.488;13.460;2023-05-01T22:28:05;4.97;;;3.87;;
16025;SDS011;8117;52.488;13.460;2023-05-01T22:30:42;6.80;;;4.27;;
16025;SDS011;8117;52.488;13.460;2023-05-01T22:33:15;7.13;;;3.77;;
16025;SDS011;8117;52.488;13.460;2023-05-01T22:35:47;6.07;;;4.03;;
16025;SDS011;8117;52.488;13.460;2023-05-01T22:38:29;5.47;;;3.03;;
16025;SDS011;8117;52.488;13.460;2023-05-01T22:43:58;5.23;;;3.07;;
16025;SDS011;8117;52.488;13.460;2023-05-01T22:46:30;5.03;;;3.20;;
16025;SDS011;8117;52.488;13.460;2023-05-01T22:48:58;8.33;;;3.57;;
16025;SDS011;8117;52.488;13.460;2023-05-01T22:51:45;4.97;;;3.50;;
16025;SDS011;8117;52.488;13.460;2023-05-01T22:54:35;4.50;;;2.67;;
16025;SDS011;8117;52.488;13.460;2023-05-01T22:57:21;4.57;;;2.93;;
16025;SDS011;8117;52.488;13.460;2023-05-01T23:00:04;10.20;;;4.30;;
16025;SDS011;8117;52.488;13.460;2023-05-01T23:03:12;3.40;;;3.10;;
16025;SDS011;8117;52.488;13.460;2023-05-01T23:05:48;5.07;;;2.73;;
16025;SDS011;8117;52.488;13.460;2023-05-01T23:08:43;3.80;;;2.50;;
16025;SDS011;8117;52.488;13.460;2023-05-01T23:11:30;4.30;;;2.90;;
16025;SDS011;8117;52.488;13.460;2023-05-01T23:14:28;3.67;;;2.20;;
16025;SDS011;8117;52.488;13.460;2023-05-01T23:17:08;5.20;;;2.97;;
16025;SDS011;8117;52.488;13.460;2023-05-01T23:20:02;3.93;;;3.10;;
16025;SDS011;8117;52.488;13.460;2023-05-01T23:22:44;7.70;;;3.30;;
16025;SDS011;8117;52.488;13.460;2023-05-01T23:25:29;2.57;;;2.20;;
16025;SDS011;8117;52.488;13.460;2023-05-01T23:28:04;3.23;;;1.83;;
16025;SDS011;8117;52.488;13.460;2023-05-01T23:30:52;4.67;;;2.77;;
16025;SDS011;8117;52.488;13.460;2023-05-01T23:33:37;2.23;;;1.93;;
16025;SDS011;8117;52.488;13.460;2023-05-01T23:36:21;5.03;;;2.30;;
16025;SDS011;8117;52.488;13.460;2023-05-01T23:39:05;1.60;;;1.50;;
16025;SDS011;8117;52.488;13.460;2023-05-01T23:41:54;2.77;;;2.03;;
16025;SDS011;8117;52.488;13.460;2023-05-01T23:44:31;2.87;;;1.80;;
16025;SDS011;8117;52.488;13.460;2023-05-01T23:47:02;1.73;;;1.43;;
16025;SDS011;8117;52.488;13.460;2023-05-01T23:52:31;3.67;;;1.80;;
16025;SDS011;8117;52.488;13.460;2023-05-01T23:55:06;2.63;;;2.20;;